sensor_id;sensor_type;location;lat;lon;timestamp;pressure;altitude;pressure_sealevel;temperature;humidity
35435;BME280;21556;55.782;37.528;2023-09-07T00:02:07;100192.50;;;13.30;100.00
35435;BME280;21556;55.782;37.528;2023-09-07T00:04:33;100194.50;;;13.49;100.00
35435;BME280;21556;55.782;37.528;2023-09-07T00:07:00;100185.34;;;13.22;100.00
35435;BME280;21556;55.782;37.528;2023-09-07T00:09:26;100194.63;;;13.58;100.00
35435;BME280;21556;55.782;37.528;2023-09-07T00:11:53;100202.63;;;13.66;100.00
35435;BME280;21556;55.782;37.528;2023-09-07T00:14:22;100198.06;;;13.53;100.00
35435;BME280;21556;55.782;37.528;2023-09-07T00:16:48;100197.44;;;13.75;100.00
35435;BME280;21556;55.782;37.528;2023-09-07T00:19:17;100195.47;;;13.57;100.00
35435;BME280;21556;55.782;37.528;2023-09-07T00:21:43;100204.91;;;13.37;100.00
35435;BME280;21556;55.782;37.528;2023-09-07T00:24:11;100205.53;;;13.22;100.00
35435;BME280;21556;55.782;37.528;2023-09-07T00:26:37;100214.41;;;13.29;100.00
35435;BME280;21556;55.782;37.528;2023-09-07T00:29:04;100216.88;;;13.18;100.00
35435;BME280;21556;55.782;37.528;2023-09-07T00:31:30;100214.84;;;12.97;100.00
35435;BME280;21556;55.782;37.528;2023-09-07T00:33:59;100217.19;;;12.79;100.00
35435;BME280;21556;55.782;37.528;2023-09-07T00:36:30;100221.16;;;13.08;100.00
35435;BME280;21556;55.782;37.528;2023-09-07T00:39:01;100214.69;;;12.88;100.00
35435;BME280;21556;55.782;37.528;2023-09-07T00:41:28;100214.56;;;12.82;100.00
35435;BME280;21556;55.782;37.528;2023-09-07T00:43:54;100222.34;;;12.71;100.00
35435;BME280;21556;55.782;37.528;2023-09-07T00:46:26;100219.78;;;12.77;100.00
35435;BME280;21556;55.782;37.528;2023-09-07T00:48:52;100219.53;;;12.60;100.00
35435;BME280;21556;55.782;37.528;2023-09-07T00:51:19;100220.09;;;12.44;100.00
35435;BME280;21556;55.782;37.528;2023-09-07T00:53:45;100228.06;;;12.48;100.00
35435;BME280;21556;55.782;37.528;2023-09-07T00:56:11;100234.81;;;12.33;100.00
35435;BME280;21556;55.782;37.528;2023-09-07T00:58:40;100232.00;;;12.72;100.00
35435;BME280;21556;55.782;37.528;2023-09-07T01:01:08;100242.41;;;12.64;100.00
35435;BME280;21556;55.782;37.528;2023-09-07T01:03:34;100245.91;;;12.16;100.00
35435;BME280;21556;55.782;37.528;2023-09-07T01:06:18;100255.28;;;12.49;100.00
35435;BME280;21556;55.782;37.528;2023-09-07T01:08:51;100249.03;;;12.42;100.00
35435;BME280;21556;55.782;37.528;2023-09-07T01:11:22;100248.16;;;12.42;100.00
35435;BME280;21556;55.782;37.528;2023-09-07T01:13:53;100254.13;;;12.32;100.00
35435;BME280;21556;55.782;37.528;2023-09-07T01:16:21;100255.34;;;12.52;100.00
35435;BME280;21556;55.782;37.528;2023-09-07T01:18:51;100251.53;;;12.88;100.00
35435;BME280;21556;55.782;37.528;2023-09-07T01:21:26;100246.69;;;12.59;100.00
35435;BME280;21556;55.782;37.528;2023-09-07T01:23:57;100250.31;;;12.66;100.00
35435;BME280;21556;55.782;37.528;2023-09-07T01:26:28;100249.03;;;12.42;100.00
35435;BME280;21556;55.782;37.528;2023-09-07T01:28:57;100252.13;;;12.68;100.00
35435;BME280;21556;55.782;37.528;2023-09-07T01:31:23;100253.13;;;12.78;100.00
35435;BME280;21556;55.782;37.528;2023-09-07T01:33:53;100254.31;;;12.44;100.00
35435;BME280;21556;55.782;37.528;2023-09-07T01:36:22;100253.41;;;12.95;100.00
35435;BME280;21556;55.782;37.528;2023-09-07T01:38:49;100259.19;;;12.71;100.00
35435;BME280;21556;55.782;37.528;2023-09-07T01:41:16;100259.59;;;12.44;100.00
35435;BME280;21556;55.782;37.528;2023-09-07T01:43:42;100261.66;;;12.63;100.00
35435;BME280;21556;55.782;37.528;2023-09-07T01:46:10;100262.19;;;12.42;100.00
35435;BME280;21556;55.782;37.528;2023-09-07T01:48:36;100260.66;;;12.07;100.00
35435;BME280;21556;55.782;37.528;2023-09-07T01:51:02;100269.84;;;12.30;100.00
35435;BME280;21556;55.782;37.528;2023-09-07T01:53:28;100273.94;;;12.14;100.00
35435;BME280;21556;55.782;37.528;2023-09-07T01:55:55;100285.34;;;12.13;100.00
35435;BME280;21556;55.782;37.528;2023-09-07T01:58:22;100276.91;;;12.31;100.00
35435;BME280;21556;55.782;37.528;2023-09-07T02:00:56;100289.97;;;12.76;100.00
35435;BME280;21556;55.782;37.528;2023-09-07T02:03:29;100287.91;;;12.57;100.00
35435;BME280;21556;55.782;37.528;2023-09-07T02:05:55;100292.59;;;12.26;100.00
35435;BME280;21556;55.782;37.528;2023-09-07T02:08:24;100290.75;;;12.21;100.00
35435;BME280;21556;55.782;37.528;2023-09-07T02:10:50;100288.97;;;11.79;100.00
35435;BME280;21556;55.782;37.528;2023-09-07T02:13:17;100294.38;;;12.27;100.00
35435;BME280;21556;55.782;37.528;2023-09-07T02:15:45;100297.38;;;12.02;100.00
35435;BME280;21556;55.782;37.528;2023-09-07T02:18:11;100301.56;;;11.54;100.00
35435;BME280;21556;55.782;37.528;2023-09-07T02:20:37;100296.53;;;12.04;100.00
35435;BME280;21556;55.782;37.528;2023-09-07T02:23:04;100292.84;;;12.40;100.00
35435;BME280;21556;55.782;37.528;2023-09-07T02:25:30;100288.38;;;11.91;100.00
35435;BME280;21556;55.782;37.528;2023-09-07T02:27:57;100297.78;;;11.40;100.00
35435;BME280;21556;55.782;37.528;2023-09-07T02:30:24;100305.06;;;11.53;100.00
35435;BME280;21556;55.782;37.528;2023-09-07T02:32:50;100299.84;;;11.94;100.00
35435;BME280;21556;55.782;37.528;2023-09-07T02:35:16;100300.03;;;11.64;100.00
35435;BME280;21556;55.782;37.528;2023-09-07T02:37:48;100297.16;;;11.91;100.00
35435;BME280;21556;55.782;37.528;2023-09-07T02:40:15;100306.94;;;12.42;100.00
35435;BME280;21556;55.782;37.528;2023-09-07T02:42:42;100308.44;;;12.29;100.00
35435;BME280;21556;55.782;37.528;2023-09-07T02:45:12;100301.41;;;12.28;100.00
35435;BME280;21556;55.782;37.528;2023-09-07T02:47:41;100313.00;;;12.38;100.00
35435;BME280;21556;55.782;37.528;2023-09-07T02:50:08;100315.88;;;12.52;100.00
35435;BME280;21556;55.782;37.528;2023-09-07T02:52:35;100319.78;;;12.27;100.00
35435;BME280;21556;55.782;37.528;2023-09-07T02:55:01;100321.28;;;12.14;100.00
35435;BME280;21556;55.782;37.528;2023-09-07T02:57:30;100325.63;;;12.12;100.00
35435;BME280;21556;55.782;37.528;2023-09-07T02:59:59;100329.81;;;11.63;100.00
35435;BME280;21556;55.782;37.528;2023-09-07T03:02:25;100329.19;;;11.73;100.00
35435;BME280;21556;55.782;37.528;2023-09-07T03:04:54;100332.38;;;11.99;100.00
35435;BME280;21556;55.782;37.528;2023-09-07T03:07:24;100341.56;;;12.20;100.00
35435;BME280;21556;55.782;37.528;2023-09-07T03:09:53;100338.00;;;11.77;100.00
35435;BME280;21556;55.782;37.528;2023-09-07T03:12:19;100341.19;;;11.62;100.00
35435;BME280;21556;55.782;37.528;2023-09-07T03:14:47;100339.03;;;11.84;100.00
35435;BME280;21556;55.782;37.528;2023-09-07T03:17:14;100337.72;;;11.63;100.00
35435;BME280;21556;55.782;37.528;2023-09-07T03:19:42;100347.44;;;11.69;100.00
35435;BME280;21556;55.782;37.528;2023-09-07T03:22:12;100346.56;;;12.06;100.00
35435;BME280;21556;55.782;37.528;2023-09-07T03:24:40;100343.78;;;12.00;100.00
35435;BME280;21556;55.782;37.528;2023-09-07T03:27:06;100339.72;;;12.16;100.00
35435;BME280;21556;55.782;37.528;2023-09-07T03:29:33;100346.72;;;11.74;100.00
35435;BME280;21556;55.782;37.528;2023-09-07T03:32:03;100342.38;;;11.76;100.00
35435;BME280;21556;55.782;37.528;2023-09-07T03:34:30;100347.16;;;11.93;100.00
35435;BME280;21556;55.782;37.528;2023-09-07T03:36:57;100349.91;;;11.99;100.00
35435;BME280;21556;55.782;37.528;2023-09-07T03:39:25;100356.97;;;12.01;100.00
35435;BME280;21556;55.782;37.528;2023-09-07T03:41:52;100360.81;;;11.78;100.00
35435;BME280;21556;55.782;37.528;2023-09-07T03:44:19;100366.47;;;11.57;100.00
35435;BME280;21556;55.782;37.528;2023-09-07T03:46:45;100365.75;;;11.26;100.00
35435;BME280;21556;55.782;37.528;2023-09-07T03:49:11;100371.78;;;11.60;100.00
35435;BME280;21556;55.782;37.528;2023-09-07T03:51:37;100370.03;;;11.59;100.00
35435;BME280;21556;55.782;37.528;2023-09-07T03:54:06;100368.47;;;11.67;100.00
35435;BME280;21556;55.782;37.528;2023-09-07T03:56:32;100364.00;;;11.63;100.00
35435;BME280;21556;55.782;37.528;2023-09-07T03:58:58;100369.00;;;11.90;100.00
35435;BME280;21556;55.782;37.528;2023-09-07T04:01:26;100365.56;;;11.94;100.00
35435;BME280;21556;55.782;37.528;2023-09-07T04:03:52;100369.88;;;11.91;100.00
35435;BME280;21556;55.782;37.528;2023-09-07T04:06:20;100376.19;;;11.61;100.00
35435;BME280;21556;55.782;37.528;2023-09-07T04:08:50;100382.97;;;11.88;100.00
35435;BME280;21556;55.782;37.528;2023-09-07T04:11:22;100385.84;;;11.98;100.00
35435;BME280;21556;55.782;37.528;2023-09-07T04:13:53;100386.06;;;11.71;100.00
35435;BME280;21556;55.782;37.528;2023-09-07T04:16:23;100391.38;;;12.12;100.00
35435;BME280;21556;55.782;37.528;2023-09-07T04:18:49;100393.03;;;12.07;100.00
35435;BME280;21556;55.782;37.528;2023-09-07T04:21:18;100403.13;;;12.28;100.00
35435;BME280;21556;55.782;37.528;2023-09-07T04:23:44;100400.84;;;12.04;100.00
35435;BME280;21556;55.782;37.528;2023-09-07T04:26:11;100403.84;;;11.83;100.00
35435;BME280;21556;55.782;37.528;2023-09-07T04:28:47;100414.38;;;11.83;100.00
35435;BME280;21556;55.782;37.528;2023-09-07T04:31:16;100412.81;;;12.31;100.00
35435;BME280;21556;55.782;37.528;2023-09-07T04:33:46;100409.28;;;11.88;100.00
35435;BME280;21556;55.782;37.528;2023-09-07T04:36:16;100410.66;;;11.73;100.00
35435;BME280;21556;55.782;37.528;2023-09-07T04:38:45;100416.56;;;11.65;100.00
35435;BME280;21556;55.782;37.528;2023-09-07T04:41:13;100405.72;;;11.87;100.00
35435;BME280;21556;55.782;37.528;2023-09-07T04:43:42;100416.59;;;12.43;100.00
35435;BME280;21556;55.782;37.528;2023-09-07T04:46:16;100413.97;;;12.45;100.00
35435;BME280;21556;55.782;37.528;2023-09-07T04:48:46;100423.72;;;12.07;100.00
35435;BME280;21556;55.782;37.528;2023-09-07T04:51:17;100422.22;;;12.19;100.00
35435;BME280;21556;55.782;37.528;2023-09-07T04:53:44;100431.03;;;12.21;100.00
35435;BME280;21556;55.782;37.528;2023-09-07T04:56:10;100429.47;;;12.29;100.00
35435;BME280;21556;55.782;37.528;2023-09-07T04:58:38;100430.88;;;12.56;100.00
35435;BME280;21556;55.782;37.528;2023-09-07T05:01:07;100424.59;;;12.93;100.00
35435;BME280;21556;55.782;37.528;2023-09-07T05:03:40;100418.44;;;12.93;100.00
35435;BME280;21556;55.782;37.528;2023-09-07T05:06:08;100427.84;;;12.82;100.00
35435;BME280;21556;55.782;37.528;2023-09-07T05:08:35;100431.25;;;12.74;100.00
35435;BME280;21556;55.782;37.528;2023-09-07T05:11:03;100424.34;;;12.81;100.00
35435;BME280;21556;55.782;37.528;2023-09-07T05:13:30;100419.72;;;12.69;100.00
35435;BME280;21556;55.782;37.528;2023-09-07T05:15:59;100426.53;;;13.04;100.00
35435;BME280;21556;55.782;37.528;2023-09-07T05:18:27;100428.66;;;12.76;100.00
35435;BME280;21556;55.782;37.528;2023-09-07T05:20:54;100423.72;;;12.96;100.00
35435;BME280;21556;55.782;37.528;2023-09-07T05:23:21;100419.72;;;12.69;100.00
35435;BME280;21556;55.782;37.528;2023-09-07T05:25:51;100421.16;;;12.99;100.00
35435;BME280;21556;55.782;37.528;2023-09-07T05:28:22;100428.03;;;13.38;100.00
35435;BME280;21556;55.782;37.528;2023-09-07T05:30:49;100423.56;;;13.34;100.00
35435;BME280;21556;55.782;37.528;2023-09-07T05:33:16;100417.84;;;13.61;100.00
35435;BME280;21556;55.782;37.528;2023-09-07T05:35:43;100416.38;;;13.25;100.00
35435;BME280;21556;55.782;37.528;2023-09-07T05:38:09;100420.53;;;13.64;100.00
35435;BME280;21556;55.782;37.528;2023-09-07T05:40:38;100424.16;;;13.72;100.00
35435;BME280;21556;55.782;37.528;2023-09-07T05:43:04;100435.75;;;13.80;100.00
35435;BME280;21556;55.782;37.528;2023-09-07T05:45:35;100421.28;;;14.14;100.00
35435;BME280;21556;55.782;37.528;2023-09-07T05:48:06;100426.00;;;14.40;100.00
35435;BME280;21556;55.782;37.528;2023-09-07T05:50:34;100422.72;;;14.56;100.00
35435;BME280;21556;55.782;37.528;2023-09-07T05:53:01;100429.53;;;14.39;100.00
35435;BME280;21556;55.782;37.528;2023-09-07T05:55:28;100430.50;;;14.45;100.00
35435;BME280;21556;55.782;37.528;2023-09-07T05:57:57;100429.56;;;14.42;100.00
35435;BME280;21556;55.782;37.528;2023-09-07T06:00:25;100434.63;;;14.98;100.00
35435;BME280;21556;55.782;37.528;2023-09-07T06:02:57;100442.41;;;14.84;100.00
35435;BME280;21556;55.782;37.528;2023-09-07T06:05:23;100444.31;;;14.98;100.00
35435;BME280;21556;55.782;37.528;2023-09-07T06:07:50;100448.31;;;14.60;100.00
35435;BME280;21556;55.782;37.528;2023-09-07T06:10:16;100434.56;;;15.91;100.00
35435;BME280;21556;55.782;37.528;2023-09-07T06:12:44;100430.59;;;16.79;100.00
35435;BME280;21556;55.782;37.528;2023-09-07T06:15:10;100439.25;;;16.41;100.00
35435;BME280;21556;55.782;37.528;2023-09-07T06:17:39;100438.66;;;17.98;100.00
35435;BME280;21556;55.782;37.528;2023-09-07T06:20:05;100440.41;;;17.26;100.00
35435;BME280;21556;55.782;37.528;2023-09-07T06:22:33;100445.66;;;18.24;100.00
35435;BME280;21556;55.782;37.528;2023-09-07T06:24:59;100450.00;;;18.46;100.00
35435;BME280;21556;55.782;37.528;2023-09-07T06:27:25;100446.44;;;18.60;100.00
35435;BME280;21556;55.782;37.528;2023-09-07T06:29:51;100443.72;;;18.69;100.00
35435;BME280;21556;55.782;37.528;2023-09-07T06:32:23;100453.56;;;18.39;100.00
35435;BME280;21556;55.782;37.528;2023-09-07T06:34:49;100452.66;;;18.48;100.00
35435;BME280;21556;55.782;37.528;2023-09-07T06:37:15;100460.53;;;18.80;100.00
35435;BME280;21556;55.782;37.528;2023-09-07T06:39:42;100445.72;;;19.71;100.00
35435;BME280;21556;55.782;37.528;2023-09-07T06:42:13;100451.38;;;19.29;100.00
35435;BME280;21556;55.782;37.528;2023-09-07T06:44:46;100452.09;;;19.49;100.00
35435;BME280;21556;55.782;37.528;2023-09-07T06:47:13;100443.28;;;19.44;100.00
35435;BME280;21556;55.782;37.528;2023-09-07T06:49:39;100446.16;;;20.19;100.00
35435;BME280;21556;55.782;37.528;2023-09-07T06:52:06;100448.63;;;20.35;100.00
35435;BME280;21556;55.782;37.528;2023-09-07T06:54:34;100452.78;;;20.62;100.00
35435;BME280;21556;55.782;37.528;2023-09-07T06:57:01;100446.06;;;20.98;100.00
35435;BME280;21556;55.782;37.528;2023-09-07T06:59:27;100454.22;;;20.89;100.00
35435;BME280;21556;55.782;37.528;2023-09-07T07:01:58;100452.00;;;20.55;100.00
35435;BME280;21556;55.782;37.528;2023-09-07T07:04:27;100449.88;;;21.42;98.76
35435;BME280;21556;55.782;37.528;2023-09-07T07:06:53;100445.69;;;21.80;99.10
35435;BME280;21556;55.782;37.528;2023-09-07T07:09:20;100455.59;;;21.18;100.00
35435;BME280;21556;55.782;37.528;2023-09-07T07:11:46;100460.38;;;20.92;99.95
35435;BME280;21556;55.782;37.528;2023-09-07T07:14:13;100452.13;;;21.11;100.00
35435;BME280;21556;55.782;37.528;2023-09-07T07:16:39;100454.28;;;20.84;100.00
35435;BME280;21556;55.782;37.528;2023-09-07T07:19:06;100447.69;;;21.08;100.00
35435;BME280;21556;55.782;37.528;2023-09-07T07:21:32;100452.06;;;21.73;95.50
35435;BME280;21556;55.782;37.528;2023-09-07T07:23:58;100452.69;;;21.31;97.14
35435;BME280;21556;55.782;37.528;2023-09-07T07:26:24;100465.06;;;21.40;99.18
35435;BME280;21556;55.782;37.528;2023-09-07T07:28:52;100459.09;;;21.77;97.76
35435;BME280;21556;55.782;37.528;2023-09-07T07:31:19;100468.00;;;20.54;100.00
35435;BME280;21556;55.782;37.528;2023-09-07T07:33:47;100462.06;;;20.98;100.00
35435;BME280;21556;55.782;37.528;2023-09-07T07:36:18;100466.97;;;20.64;100.00
35435;BME280;21556;55.782;37.528;2023-09-07T07:38:47;100458.84;;;21.38;97.37
35435;BME280;21556;55.782;37.528;2023-09-07T07:41:16;100453.78;;;21.18;98.14
35435;BME280;21556;55.782;37.528;2023-09-07T07:43:42;100459.25;;;22.20;93.23
35435;BME280;21556;55.782;37.528;2023-09-07T07:46:09;100453.94;;;22.62;89.65
35435;BME280;21556;55.782;37.528;2023-09-07T07:48:37;100455.59;;;21.73;86.71
35435;BME280;21556;55.782;37.528;2023-09-07T07:51:10;100454.22;;;20.89;94.05
35435;BME280;21556;55.782;37.528;2023-09-07T07:53:37;100451.06;;;21.78;93.53
35435;BME280;21556;55.782;37.528;2023-09-07T07:56:18;100452.03;;;21.17;95.87
35435;BME280;21556;55.782;37.528;2023-09-07T07:58:48;100449.88;;;22.44;84.15
35435;BME280;21556;55.782;37.528;2023-09-07T08:01:17;100447.91;;;22.06;88.29
35435;BME280;21556;55.782;37.528;2023-09-07T08:03:49;100445.94;;;21.06;98.43
35435;BME280;21556;55.782;37.528;2023-09-07T08:06:19;100435.53;;;20.89;97.75
35435;BME280;21556;55.782;37.528;2023-09-07T08:08:48;100426.81;;;20.02;100.00
35435;BME280;21556;55.782;37.528;2023-09-07T08:11:18;100439.19;;;20.80;99.47
35435;BME280;21556;55.782;37.528;2023-09-07T08:13:49;100439.19;;;21.44;90.02
35435;BME280;21556;55.782;37.528;2023-09-07T08:16:46;100431.34;;;21.31;90.69
35435;BME280;21556;55.782;37.528;2023-09-07T08:19:13;100436.78;;;21.25;94.26
35435;BME280;21556;55.782;37.528;2023-09-07T08:21:40;100427.75;;;20.74;99.25
35435;BME280;21556;55.782;37.528;2023-09-07T08:24:08;100438.16;;;20.92;97.14
35435;BME280;21556;55.782;37.528;2023-09-07T08:26:36;100436.09;;;20.43;99.03
35435;BME280;21556;55.782;37.528;2023-09-07T08:29:08;100438.81;;;19.47;100.00
35435;BME280;21556;55.782;37.528;2023-09-07T08:31:35;100442.88;;;18.51;100.00
35435;BME280;21556;55.782;37.528;2023-09-07T08:34:06;100435.19;;;20.44;98.08
35435;BME280;21556;55.782;37.528;2023-09-07T08:36:33;100416.88;;;20.87;93.97
35435;BME280;21556;55.782;37.528;2023-09-07T08:39:03;100427.03;;;20.61;97.23
35435;BME280;21556;55.782;37.528;2023-09-07T08:41:37;100434.75;;;20.04;100.00
35435;BME280;21556;55.782;37.528;2023-09-07T08:44:10;100425.03;;;20.01;100.00
35435;BME280;21556;55.782;37.528;2023-09-07T08:46:40;100433.31;;;20.57;96.44
35435;BME280;21556;55.782;37.528;2023-09-07T08:49:07;100421.88;;;22.17;80.32
35435;BME280;21556;55.782;37.528;2023-09-07T08:51:35;100422.09;;;21.55;77.05
35435;BME280;21556;55.782;37.528;2023-09-07T08:54:09;100416.84;;;20.18;87.06
35435;BME280;21556;55.782;37.528;2023-09-07T08:56:36;100423.00;;;20.25;85.08
35435;BME280;21556;55.782;37.528;2023-09-07T08:59:04;100423.41;;;20.65;77.92
35435;BME280;21556;55.782;37.528;2023-09-07T09:01:33;100421.69;;;20.61;73.54
35435;BME280;21556;55.782;37.528;2023-09-07T09:04:00;100410.31;;;21.67;67.33
35435;BME280;21556;55.782;37.528;2023-09-07T09:06:31;100404.22;;;21.59;67.46
35435;BME280;21556;55.782;37.528;2023-09-07T09:09:10;100426.56;;;20.22;76.38
35435;BME280;21556;55.782;37.528;2023-09-07T09:11:39;100424.53;;;19.61;79.52
35435;BME280;21556;55.782;37.528;2023-09-07T09:14:10;100428.16;;;20.37;78.71
35435;BME280;21556;55.782;37.528;2023-09-07T09:16:36;100431.75;;;20.37;78.21
35435;BME280;21556;55.782;37.528;2023-09-07T09:19:04;100430.31;;;20.81;74.01
35435;BME280;21556;55.782;37.528;2023-09-07T09:21:30;100411.53;;;20.87;69.50
35435;BME280;21556;55.782;37.528;2023-09-07T09:24:00;100419.69;;;20.78;72.68
35435;BME280;21556;55.782;37.528;2023-09-07T09:26:26;100432.00;;;20.16;71.18
35435;BME280;21556;55.782;37.528;2023-09-07T09:28:55;100424.03;;;20.85;65.99
35435;BME280;21556;55.782;37.528;2023-09-07T09:31:23;100430.44;;;20.72;68.19
35435;BME280;21556;55.782;37.528;2023-09-07T09:33:53;100425.16;;;21.82;65.71
35435;BME280;21556;55.782;37.528;2023-09-07T09:36:20;100418.78;;;20.04;71.36
35435;BME280;21556;55.782;37.528;2023-09-07T09:38:52;100426.34;;;19.53;79.70
35435;BME280;21556;55.782;37.528;2023-09-07T09:41:20;100420.94;;;19.62;79.04
35435;BME280;21556;55.782;37.528;2023-09-07T09:43:49;100428.56;;;20.03;77.36
35435;BME280;21556;55.782;37.528;2023-09-07T09:46:18;100433.59;;;20.31;73.42
35435;BME280;21556;55.782;37.528;2023-09-07T09:48:45;100428.03;;;20.51;69.91
35435;BME280;21556;55.782;37.528;2023-09-07T09:51:14;100411.91;;;21.23;64.13
35435;BME280;21556;55.782;37.528;2023-09-07T09:53:45;100416.50;;;20.47;64.78
35435;BME280;21556;55.782;37.528;2023-09-07T09:56:11;100396.91;;;21.16;60.57
35435;BME280;21556;55.782;37.528;2023-09-07T09:58:39;100405.00;;;21.66;58.69
35435;BME280;21556;55.782;37.528;2023-09-07T10:01:09;100392.34;;;21.24;60.57
35435;BME280;21556;55.782;37.528;2023-09-07T10:03:44;100408.47;;;21.72;63.25
35435;BME280;21556;55.782;37.528;2023-09-07T10:06:20;100422.38;;;20.01;71.51
35435;BME280;21556;55.782;37.528;2023-09-07T10:09:06;100418.63;;;20.17;72.69
35435;BME280;21556;55.782;37.528;2023-09-07T10:11:51;100426.84;;;18.70;79.14
35435;BME280;21556;55.782;37.528;2023-09-07T10:14:25;100417.75;;;19.17;77.15
35435;BME280;21556;55.782;37.528;2023-09-07T10:16:56;100424.44;;;19.73;71.70
35435;BME280;21556;55.782;37.528;2023-09-07T10:19:32;100416.44;;;21.18;64.42
35435;BME280;21556;55.782;37.528;2023-09-07T10:22:02;100409.94;;;22.35;54.95
35435;BME280;21556;55.782;37.528;2023-09-07T10:24:37;100411.03;;;22.25;54.99
35435;BME280;21556;55.782;37.528;2023-09-07T10:27:09;100409.38;;;22.61;57.23
35435;BME280;21556;55.782;37.528;2023-09-07T10:29:43;100389.13;;;23.98;49.68
35435;BME280;21556;55.782;37.528;2023-09-07T10:32:40;100405.50;;;21.87;59.11
35435;BME280;21556;55.782;37.528;2023-09-07T10:35:15;100405.84;;;21.69;56.63
35435;BME280;21556;55.782;37.528;2023-09-07T10:37:46;100411.28;;;22.11;54.20
35435;BME280;21556;55.782;37.528;2023-09-07T10:40:26;100401.81;;;21.95;53.35
35435;BME280;21556;55.782;37.528;2023-09-07T10:43:20;100395.53;;;21.48;53.95
35435;BME280;21556;55.782;37.528;2023-09-07T10:45:53;100393.97;;;21.34;58.90
35435;BME280;21556;55.782;37.528;2023-09-07T10:48:33;100389.31;;;20.88;64.45
35435;BME280;21556;55.782;37.528;2023-09-07T10:51:00;100397.22;;;21.52;63.46
35435;BME280;21556;55.782;37.528;2023-09-07T10:53:30;100388.50;;;20.85;66.78
35435;BME280;21556;55.782;37.528;2023-09-07T10:55:59;100404.25;;;20.34;69.62
35435;BME280;21556;55.782;37.528;2023-09-07T10:58:33;100411.44;;;20.26;72.19
35435;BME280;21556;55.782;37.528;2023-09-07T11:01:03;100404.09;;;20.46;73.86
35435;BME280;21556;55.782;37.528;2023-09-07T11:03:29;100399.38;;;19.92;74.42
35435;BME280;21556;55.782;37.528;2023-09-07T11:06:10;100411.66;;;20.06;73.75
35435;BME280;21556;55.782;37.528;2023-09-07T11:08:38;100404.19;;;20.38;67.60
35435;BME280;21556;55.782;37.528;2023-09-07T11:11:05;100402.38;;;20.40;70.71
35435;BME280;21556;55.782;37.528;2023-09-07T11:13:32;100406.47;;;19.95;75.39
35435;BME280;21556;55.782;37.528;2023-09-07T11:16:07;100405.59;;;19.94;76.40
35435;BME280;21556;55.782;37.528;2023-09-07T11:18:34;100403.38;;;20.32;72.96
35435;BME280;21556;55.782;37.528;2023-09-07T11:21:03;100413.75;;;19.75;77.95
35435;BME280;21556;55.782;37.528;2023-09-07T11:23:31;100409.41;;;19.64;79.76
35435;BME280;21556;55.782;37.528;2023-09-07T11:26:04;100412.41;;;19.21;85.11
35435;BME280;21556;55.782;37.528;2023-09-07T11:28:31;100425.13;;;18.75;90.69
35435;BME280;21556;55.782;37.528;2023-09-07T11:30:58;100427.50;;;19.21;88.37
35435;BME280;21556;55.782;37.528;2023-09-07T11:33:25;100414.00;;;19.47;86.09
35435;BME280;21556;55.782;37.528;2023-09-07T11:36:00;100418.84;;;18.87;86.77
35435;BME280;21556;55.782;37.528;2023-09-07T11:38:35;100415.94;;;19.25;85.43
35435;BME280;21556;55.782;37.528;2023-09-07T11:41:03;100407.94;;;19.23;86.95
35435;BME280;21556;55.782;37.528;2023-09-07T11:43:29;100406.38;;;18.99;86.99
35435;BME280;21556;55.782;37.528;2023-09-07T11:45:56;100402.81;;;18.99;87.53
35435;BME280;21556;55.782;37.528;2023-09-07T11:48:22;100408.25;;;18.70;87.88
35435;BME280;21556;55.782;37.528;2023-09-07T11:50:48;100408.22;;;18.87;83.21
35435;BME280;21556;55.782;37.528;2023-09-07T11:53:14;100397.63;;;18.79;82.85
35435;BME280;21556;55.782;37.528;2023-09-07T11:55:40;100395.00;;;18.74;84.43
35435;BME280;21556;55.782;37.528;2023-09-07T11:58:18;100396.53;;;19.11;81.40
35435;BME280;21556;55.782;37.528;2023-09-07T12:00:48;100390.31;;;19.12;78.22
35435;BME280;21556;55.782;37.528;2023-09-07T12:03:14;100388.47;;;19.20;78.19
35435;BME280;21556;55.782;37.528;2023-09-07T12:05:42;100393.66;;;19.35;79.26
35435;BME280;21556;55.782;37.528;2023-09-07T12:08:11;100399.22;;;19.05;81.07
35435;BME280;21556;55.782;37.528;2023-09-07T12:10:37;100376.81;;;19.38;69.65
35435;BME280;21556;55.782;37.528;2023-09-07T12:13:03;100391.81;;;19.46;70.38
35435;BME280;21556;55.782;37.528;2023-09-07T12:15:29;100384.03;;;19.20;72.60
35435;BME280;21556;55.782;37.528;2023-09-07T12:17:59;100376.97;;;19.16;70.18
35435;BME280;21556;55.782;37.528;2023-09-07T12:20:27;100381.13;;;19.49;67.14
35435;BME280;21556;55.782;37.528;2023-09-07T12:22:54;100381.69;;;19.87;67.68
35435;BME280;21556;55.782;37.528;2023-09-07T12:25:20;100381.00;;;19.66;66.24
35435;BME280;21556;55.782;37.528;2023-09-07T12:27:46;100382.16;;;19.33;69.57
35435;BME280;21556;55.782;37.528;2023-09-07T12:30:25;100382.03;;;19.50;69.25
35435;BME280;21556;55.782;37.528;2023-09-07T12:32:58;100374.03;;;20.33;63.28
35435;BME280;21556;55.782;37.528;2023-09-07T12:35:24;100378.97;;;18.88;73.95
35435;BME280;21556;55.782;37.528;2023-09-07T12:37:50;100372.50;;;19.24;72.27
35435;BME280;21556;55.782;37.528;2023-09-07T12:40:16;100369.06;;;19.10;68.94
35435;BME280;21556;55.782;37.528;2023-09-07T12:42:44;100381.22;;;19.40;71.15